New Market, Iowa
Current Conditions -  °F | °C
As of 1:35 AM on Wednesday 22 Oct 2014 (Local Time) from KICL Reporting Station
Overcast Overcast  
Wind Chill: 55°   Ceiling: 7000
Heat Index: 55°   Visibility: 10mi
Dew Point: 45°   Wind: 8mph
Humidity: 67%   Direction: 150°SSE
Pressure: 30.14"   Gusts: NA
Location:  40.73°N, 94.9°W
Report Text: KICL 220635Z AUTO 15007KT 10SM SCT060 OVC070 13/07 A3014 RMK AO2
Loading
Personal Weather Stations






























Interactive Weather Map
Tropical Storm Tracking
New forecast layout! Learn more

10-Day Weather Forecast

Advertisements
Track Severe Weather on mobile